Onweer radar Meer informatie blitzortung!


Regen radar Meer informatie rain snow radar



METAR rapporten vliegvelden

   
EHRD - Rotterdam
Gewijzigd: 23-02-2020 21:25
Gedeeltelijk bewolkt  
Gedeeltelijk bewolkt  
   Wind: WNW 16 km/h
Wind: WNW 16 km/h
Temperatuur: 7°C
Voelt als: 3°C
Dauwpunt: 1°C
Vochtigheid: 66%
Barometer: 1021 hPa
Bewolking: Partly Cloudy
Zicht: meer dan 10 km
Bewolking: Gedeeltelijk bewolkt ft
EHRD 232025Z AUTO 30016KT 270V340 9999 NSC 07/01 Q1021 NOSIG
EBAW - Antwerpen
Gewijzigd: 23-02-2020 21:50
Gedeeltelijk bewolkt  
Gedeeltelijk bewolkt  
   Wind: NW 11 km/h
Wind: NW 11 km/h
Temperatuur: 8°C
Voelt als: 5°C
Dauwpunt: 1°C
Vochtigheid: 62%
Barometer: 1023 hPa
Bewolking: Partly Cloudy
Zicht: meer dan 10 km
Bewolking: Gedeeltelijk bewolkt 4100 ft
EBAW 232050Z 32011KT 9999 SCT041 08/01 Q1023 NOSIG
EHAM - Amsterdam
Gewijzigd: 23-02-2020 21:55
Licht bewolkt  
Licht bewolkt  
   Wind: WNW 15 km/h
Wind: WNW 15 km/h
Temperatuur: 6°C
Voelt als: 2°C
Dauwpunt: 1°C
Vochtigheid: 71%
Barometer: 1020 hPa
Bewolking: Few Clouds
Zicht: meer dan 10 km
Bewolking: Licht bewolkt 2600 ft
EHAM 232055Z 29015KT 9999 FEW026 06/01 Q1020 NOSIG
EHEH - Eindhoven
Gewijzigd: 23-02-2020 21:55
Bewolking  
Bewolking  
   Wind: WNW 6 km/h
Wind: WNW 6 km/h
Temperatuur: 7°C
Voelt als: 5°C
Dauwpunt: 2°C
Vochtigheid: 71%
Barometer: 1022 hPa
Bewolking: Overcast
Zicht: meer dan 10 km
Bewolking: Bewolking 15000 ft
EHEH 232055Z AUTO 29006KT 240V340 9999 OVC150 07/02 Q1022 BLU 29010KT CAVOK
  

Script ontwikkeld door  Saratoga-weather.org Aangepast voor de template door  Weerstation Leuven

U vindt ons ook hier:

Het Weer Aktueel

Apparatuur in gebruik:

Weerstation
Davis VP2

Weerprogramma
Cumulus

Weercomputer
Pipo X9 with Windows 10

Davis VP2

Cumulus

Pipo X9 with Windows 10